Terminal Aerodrome Forecast
Issued by NWS Houston/Galveston, TX

Home | Current Version | Previous Version | Text Only | Print | Product List | Glossary On
Versions: 1 2 3 4 5 6 7 8 9 10 11 12 13 14 15
000
FTUS44 KHGX 231720
TAFCLL
TAF
KCLL 231720Z 2318/2418 17010G15KT P6SM SCT040
     FM240200 16010KT P6SM FEW250
     FM240900 18008KT P6SM BKN007
     FM241400 19010KT P6SM SCT015=

USA.gov is the U.S. government's official web portal to all federal, state and local government web resources and services.